sensor_id;sensor_type;location;lat;lon;timestamp;P1;durP1;ratioP1;P2;durP2;ratioP2
29294;SDS011;16305;48.566;8.846;2023-02-28T00:02:17;6.23;;;3.93;;
29294;SDS011;16305;48.566;8.846;2023-02-28T00:04:43;7.60;;;3.53;;
29294;SDS011;16305;48.566;8.846;2023-02-28T00:07:09;5.73;;;3.40;;
29294;SDS011;16305;48.566;8.846;2023-02-28T00:09:34;6.70;;;3.33;;
29294;SDS011;16305;48.566;8.846;2023-02-28T00:12:00;6.13;;;4.03;;
29294;SDS011;16305;48.566;8.846;2023-02-28T00:14:35;4.27;;;3.30;;
29294;SDS011;16305;48.566;8.846;2023-02-28T00:17:03;4.43;;;3.20;;
29294;SDS011;16305;48.566;8.846;2023-02-28T00:19:29;4.63;;;3.40;;
29294;SDS011;16305;48.566;8.846;2023-02-28T00:21:54;5.03;;;3.10;;
29294;SDS011;16305;48.566;8.846;2023-02-28T00:24:20;4.77;;;3.47;;
29294;SDS011;16305;48.566;8.846;2023-02-28T00:26:45;5.17;;;3.33;;
29294;SDS011;16305;48.566;8.846;2023-02-28T00:29:11;5.30;;;3.20;;
29294;SDS011;16305;48.566;8.846;2023-02-28T00:31:36;4.70;;;3.83;;
29294;SDS011;16305;48.566;8.846;2023-02-28T00:34:02;6.00;;;3.73;;
29294;SDS011;16305;48.566;8.846;2023-02-28T00:36:27;6.10;;;4.13;;
29294;SDS011;16305;48.566;8.846;2023-02-28T00:38:53;4.97;;;3.07;;
29294;SDS011;16305;48.566;8.846;2023-02-28T00:41:18;5.47;;;3.53;;
29294;SDS011;16305;48.566;8.846;2023-02-28T00:43:44;4.67;;;3.27;;
29294;SDS011;16305;48.566;8.846;2023-02-28T00:46:09;6.60;;;3.53;;
29294;SDS011;16305;48.566;8.846;2023-02-28T00:48:36;5.53;;;3.33;;
29294;SDS011;16305;48.566;8.846;2023-02-28T00:51:01;3.63;;;3.20;;
29294;SDS011;16305;48.566;8.846;2023-02-28T00:53:27;5.50;;;3.70;;
29294;SDS011;16305;48.566;8.846;2023-02-28T00:55:53;4.37;;;3.70;;
29294;SDS011;16305;48.566;8.846;2023-02-28T00:58:19;7.10;;;3.50;;
29294;SDS011;16305;48.566;8.846;2023-02-28T01:00:45;5.07;;;3.60;;
29294;SDS011;16305;48.566;8.846;2023-02-28T01:03:14;6.13;;;3.90;;
29294;SDS011;16305;48.566;8.846;2023-02-28T01:05:44;4.63;;;2.97;;
29294;SDS011;16305;48.566;8.846;2023-02-28T01:08:10;4.90;;;4.20;;
29294;SDS011;16305;48.566;8.846;2023-02-28T01:10:35;5.60;;;3.40;;
29294;SDS011;16305;48.566;8.846;2023-02-28T01:13:01;4.70;;;3.13;;
29294;SDS011;16305;48.566;8.846;2023-02-28T01:15:27;8.30;;;3.87;;
29294;SDS011;16305;48.566;8.846;2023-02-28T01:17:53;5.43;;;3.90;;
29294;SDS011;16305;48.566;8.846;2023-02-28T01:20:19;7.20;;;3.90;;
29294;SDS011;16305;48.566;8.846;2023-02-28T01:22:44;4.33;;;3.27;;
29294;SDS011;16305;48.566;8.846;2023-02-28T01:25:11;3.77;;;2.60;;
29294;SDS011;16305;48.566;8.846;2023-02-28T01:27:37;5.67;;;3.57;;
29294;SDS011;16305;48.566;8.846;2023-02-28T01:30:04;10.77;;;3.83;;
29294;SDS011;16305;48.566;8.846;2023-02-28T01:32:31;6.07;;;3.37;;
29294;SDS011;16305;48.566;8.846;2023-02-28T01:34:56;6.93;;;4.00;;
29294;SDS011;16305;48.566;8.846;2023-02-28T01:37:22;5.87;;;3.87;;
29294;SDS011;16305;48.566;8.846;2023-02-28T01:39:47;4.90;;;3.60;;
29294;SDS011;16305;48.566;8.846;2023-02-28T01:42:13;4.57;;;3.43;;
29294;SDS011;16305;48.566;8.846;2023-02-28T01:47:22;5.13;;;4.13;;
29294;SDS011;16305;48.566;8.846;2023-02-28T01:49:49;4.17;;;3.37;;
29294;SDS011;16305;48.566;8.846;2023-02-28T01:52:16;7.83;;;3.27;;
29294;SDS011;16305;48.566;8.846;2023-02-28T01:54:44;4.83;;;3.67;;
29294;SDS011;16305;48.566;8.846;2023-02-28T01:57:16;5.27;;;3.13;;
29294;SDS011;16305;48.566;8.846;2023-02-28T01:59:47;5.90;;;3.70;;
29294;SDS011;16305;48.566;8.846;2023-02-28T02:02:17;7.23;;;3.97;;
29294;SDS011;16305;48.566;8.846;2023-02-28T02:04:53;3.50;;;3.20;;
29294;SDS011;16305;48.566;8.846;2023-02-28T02:07:26;4.77;;;3.63;;
29294;SDS011;16305;48.566;8.846;2023-02-28T02:10:05;5.07;;;3.50;;
29294;SDS011;16305;48.566;8.846;2023-02-28T02:21:28;4.73;;;3.50;;
29294;SDS011;16305;48.566;8.846;2023-02-28T02:27:22;5.13;;;4.00;;
29294;SDS011;16305;48.566;8.846;2023-02-28T02:35:23;4.33;;;3.63;;
29294;SDS011;16305;48.566;8.846;2023-02-28T02:37:56;6.33;;;3.90;;
29294;SDS011;16305;48.566;8.846;2023-02-28T02:40:48;3.93;;;3.43;;
29294;SDS011;16305;48.566;8.846;2023-02-28T02:43:25;5.67;;;3.93;;
29294;SDS011;16305;48.566;8.846;2023-02-28T02:46:02;6.00;;;4.50;;
29294;SDS011;16305;48.566;8.846;2023-02-28T02:48:52;5.03;;;3.90;;
29294;SDS011;16305;48.566;8.846;2023-02-28T02:51:21;7.77;;;4.40;;
29294;SDS011;16305;48.566;8.846;2023-02-28T02:53:53;6.37;;;3.70;;
29294;SDS011;16305;48.566;8.846;2023-02-28T02:56:25;6.50;;;3.77;;
29294;SDS011;16305;48.566;8.846;2023-02-28T02:58:55;5.47;;;4.17;;
29294;SDS011;16305;48.566;8.846;2023-02-28T03:01:26;4.27;;;3.87;;
29294;SDS011;16305;48.566;8.846;2023-02-28T03:03:57;3.53;;;3.10;;
29294;SDS011;16305;48.566;8.846;2023-02-28T03:06:29;7.30;;;4.50;;
29294;SDS011;16305;48.566;8.846;2023-02-28T03:08:54;6.40;;;4.70;;
29294;SDS011;16305;48.566;8.846;2023-02-28T03:11:20;6.57;;;5.20;;
29294;SDS011;16305;48.566;8.846;2023-02-28T03:13:49;7.93;;;4.87;;
29294;SDS011;16305;48.566;8.846;2023-02-28T03:16:28;5.03;;;4.00;;
29294;SDS011;16305;48.566;8.846;2023-02-28T03:22:00;6.20;;;4.57;;
29294;SDS011;16305;48.566;8.846;2023-02-28T03:27:39;6.17;;;4.10;;
29294;SDS011;16305;48.566;8.846;2023-02-28T03:29:46;8.87;;;4.87;;
29294;SDS011;16305;48.566;8.846;2023-02-28T03:32:22;7.43;;;4.53;;
29294;SDS011;16305;48.566;8.846;2023-02-28T03:34:58;6.20;;;4.70;;
29294;SDS011;16305;48.566;8.846;2023-02-28T03:37:31;8.43;;;5.77;;
29294;SDS011;16305;48.566;8.846;2023-02-28T03:40:03;6.00;;;5.13;;
29294;SDS011;16305;48.566;8.846;2023-02-28T03:42:37;6.43;;;4.70;;
29294;SDS011;16305;48.566;8.846;2023-02-28T03:45:05;6.40;;;5.43;;
29294;SDS011;16305;48.566;8.846;2023-02-28T03:50:11;6.67;;;4.93;;
29294;SDS011;16305;48.566;8.846;2023-02-28T03:52:42;7.07;;;5.57;;
29294;SDS011;16305;48.566;8.846;2023-02-28T03:55:30;5.77;;;4.70;;
29294;SDS011;16305;48.566;8.846;2023-02-28T03:58:14;8.30;;;5.33;;
29294;SDS011;16305;48.566;8.846;2023-02-28T04:00:43;9.13;;;5.50;;
29294;SDS011;16305;48.566;8.846;2023-02-28T04:03:12;7.27;;;5.47;;
29294;SDS011;16305;48.566;8.846;2023-02-28T04:05:51;10.13;;;5.80;;
29294;SDS011;16305;48.566;8.846;2023-02-28T04:08:19;8.33;;;4.97;;
29294;SDS011;16305;48.566;8.846;2023-02-28T04:10:46;8.83;;;5.53;;
29294;SDS011;16305;48.566;8.846;2023-02-28T04:13:19;8.90;;;5.93;;
29294;SDS011;16305;48.566;8.846;2023-02-28T04:15:45;8.43;;;5.57;;
29294;SDS011;16305;48.566;8.846;2023-02-28T04:18:10;9.00;;;6.17;;
29294;SDS011;16305;48.566;8.846;2023-02-28T04:20:36;7.83;;;5.63;;
29294;SDS011;16305;48.566;8.846;2023-02-28T04:23:01;9.83;;;6.10;;
29294;SDS011;16305;48.566;8.846;2023-02-28T04:25:27;8.97;;;6.67;;
29294;SDS011;16305;48.566;8.846;2023-02-28T04:27:52;7.00;;;5.33;;
29294;SDS011;16305;48.566;8.846;2023-02-28T04:30:18;9.73;;;6.53;;
29294;SDS011;16305;48.566;8.846;2023-02-28T04:32:43;7.23;;;5.87;;
29294;SDS011;16305;48.566;8.846;2023-02-28T04:35:09;9.33;;;6.03;;
29294;SDS011;16305;48.566;8.846;2023-02-28T04:37:34;8.70;;;6.37;;
29294;SDS011;16305;48.566;8.846;2023-02-28T04:40:01;9.20;;;6.30;;
29294;SDS011;16305;48.566;8.846;2023-02-28T04:42:28;8.83;;;6.10;;
29294;SDS011;16305;48.566;8.846;2023-02-28T04:45:00;11.70;;;6.93;;
29294;SDS011;16305;48.566;8.846;2023-02-28T04:47:26;10.97;;;6.57;;
29294;SDS011;16305;48.566;8.846;2023-02-28T04:49:52;9.77;;;6.47;;
29294;SDS011;16305;48.566;8.846;2023-02-28T04:52:17;10.33;;;5.90;;
29294;SDS011;16305;48.566;8.846;2023-02-28T04:54:43;9.87;;;6.33;;
29294;SDS011;16305;48.566;8.846;2023-02-28T04:57:09;9.87;;;5.67;;
29294;SDS011;16305;48.566;8.846;2023-02-28T04:59:34;8.13;;;5.97;;
29294;SDS011;16305;48.566;8.846;2023-02-28T05:02:00;10.87;;;6.47;;
29294;SDS011;16305;48.566;8.846;2023-02-28T05:04:25;10.07;;;6.57;;
29294;SDS011;16305;48.566;8.846;2023-02-28T05:06:50;8.50;;;6.03;;
29294;SDS011;16305;48.566;8.846;2023-02-28T05:09:16;9.83;;;6.53;;
29294;SDS011;16305;48.566;8.846;2023-02-28T05:11:42;9.97;;;6.40;;
29294;SDS011;16305;48.566;8.846;2023-02-28T05:14:11;9.57;;;6.57;;
29294;SDS011;16305;48.566;8.846;2023-02-28T05:16:38;10.03;;;6.83;;
29294;SDS011;16305;48.566;8.846;2023-02-28T05:19:04;12.27;;;6.17;;
29294;SDS011;16305;48.566;8.846;2023-02-28T05:21:37;10.47;;;7.80;;
29294;SDS011;16305;48.566;8.846;2023-02-28T05:24:12;8.77;;;6.53;;
29294;SDS011;16305;48.566;8.846;2023-02-28T05:26:39;9.90;;;6.50;;
29294;SDS011;16305;48.566;8.846;2023-02-28T05:29:07;12.37;;;7.60;;
29294;SDS011;16305;48.566;8.846;2023-02-28T05:31:33;9.80;;;6.83;;
29294;SDS011;16305;48.566;8.846;2023-02-28T05:33:59;10.17;;;7.13;;
29294;SDS011;16305;48.566;8.846;2023-02-28T05:36:25;11.40;;;7.03;;
29294;SDS011;16305;48.566;8.846;2023-02-28T05:38:50;11.63;;;6.97;;
29294;SDS011;16305;48.566;8.846;2023-02-28T05:41:17;12.10;;;7.37;;
29294;SDS011;16305;48.566;8.846;2023-02-28T05:43:47;10.27;;;7.27;;
29294;SDS011;16305;48.566;8.846;2023-02-28T05:46:13;13.80;;;6.70;;
29294;SDS011;16305;48.566;8.846;2023-02-28T05:48:39;13.37;;;6.97;;
29294;SDS011;16305;48.566;8.846;2023-02-28T05:51:06;13.50;;;7.97;;
29294;SDS011;16305;48.566;8.846;2023-02-28T05:53:33;13.30;;;8.00;;
29294;SDS011;16305;48.566;8.846;2023-02-28T05:55:59;14.60;;;7.60;;
29294;SDS011;16305;48.566;8.846;2023-02-28T05:58:25;9.47;;;7.00;;
29294;SDS011;16305;48.566;8.846;2023-02-28T06:00:55;9.43;;;7.13;;
29294;SDS011;16305;48.566;8.846;2023-02-28T06:03:24;11.23;;;8.03;;
29294;SDS011;16305;48.566;8.846;2023-02-28T06:05:50;11.20;;;8.33;;
29294;SDS011;16305;48.566;8.846;2023-02-28T06:08:16;11.47;;;7.60;;
29294;SDS011;16305;48.566;8.846;2023-02-28T06:10:42;13.17;;;7.93;;
29294;SDS011;16305;48.566;8.846;2023-02-28T06:13:07;10.53;;;7.67;;
29294;SDS011;16305;48.566;8.846;2023-02-28T06:15:33;11.33;;;8.10;;
29294;SDS011;16305;48.566;8.846;2023-02-28T06:17:58;11.17;;;7.90;;
29294;SDS011;16305;48.566;8.846;2023-02-28T06:20:25;14.63;;;7.93;;
29294;SDS011;16305;48.566;8.846;2023-02-28T06:22:54;11.87;;;8.60;;
29294;SDS011;16305;48.566;8.846;2023-02-28T06:25:21;10.40;;;7.90;;
29294;SDS011;16305;48.566;8.846;2023-02-28T06:27:46;10.70;;;8.60;;
29294;SDS011;16305;48.566;8.846;2023-02-28T06:30:13;11.73;;;8.23;;
29294;SDS011;16305;48.566;8.846;2023-02-28T06:32:38;11.50;;;7.63;;
29294;SDS011;16305;48.566;8.846;2023-02-28T06:35:04;12.67;;;8.40;;
29294;SDS011;16305;48.566;8.846;2023-02-28T06:37:30;12.60;;;8.20;;
29294;SDS011;16305;48.566;8.846;2023-02-28T06:39:56;10.87;;;7.33;;
29294;SDS011;16305;48.566;8.846;2023-02-28T06:42:23;12.13;;;7.90;;
29294;SDS011;16305;48.566;8.846;2023-02-28T06:44:53;12.07;;;8.80;;
29294;SDS011;16305;48.566;8.846;2023-02-28T06:47:20;12.17;;;8.30;;
29294;SDS011;16305;48.566;8.846;2023-02-28T06:49:46;13.07;;;8.93;;
29294;SDS011;16305;48.566;8.846;2023-02-28T06:52:11;14.40;;;8.43;;
29294;SDS011;16305;48.566;8.846;2023-02-28T06:54:37;10.63;;;7.97;;
29294;SDS011;16305;48.566;8.846;2023-02-28T06:57:02;13.47;;;9.23;;
29294;SDS011;16305;48.566;8.846;2023-02-28T06:59:28;13.93;;;8.57;;
29294;SDS011;16305;48.566;8.846;2023-02-28T07:01:53;14.17;;;8.70;;
29294;SDS011;16305;48.566;8.846;2023-02-28T07:04:20;14.80;;;9.20;;
29294;SDS011;16305;48.566;8.846;2023-02-28T07:06:46;12.00;;;8.43;;
29294;SDS011;16305;48.566;8.846;2023-02-28T07:09:11;12.87;;;8.37;;
29294;SDS011;16305;48.566;8.846;2023-02-28T07:11:39;11.67;;;8.50;;
29294;SDS011;16305;48.566;8.846;2023-02-28T07:14:05;14.27;;;9.43;;
29294;SDS011;16305;48.566;8.846;2023-02-28T07:16:31;13.23;;;8.87;;
29294;SDS011;16305;48.566;8.846;2023-02-28T07:18:57;12.30;;;8.00;;
29294;SDS011;16305;48.566;8.846;2023-02-28T07:21:22;14.77;;;9.27;;
29294;SDS011;16305;48.566;8.846;2023-02-28T07:23:48;12.40;;;8.57;;
29294;SDS011;16305;48.566;8.846;2023-02-28T07:26:15;12.70;;;8.20;;
29294;SDS011;16305;48.566;8.846;2023-02-28T07:28:43;14.50;;;9.33;;
29294;SDS011;16305;48.566;8.846;2023-02-28T07:31:11;16.40;;;9.47;;
29294;SDS011;16305;48.566;8.846;2023-02-28T07:33:38;13.63;;;9.27;;
29294;SDS011;16305;48.566;8.846;2023-02-28T07:36:06;14.67;;;8.00;;
29294;SDS011;16305;48.566;8.846;2023-02-28T07:38:40;12.00;;;7.70;;
29294;SDS011;16305;48.566;8.846;2023-02-28T07:41:09;13.83;;;9.37;;
29294;SDS011;16305;48.566;8.846;2023-02-28T07:43:35;12.90;;;9.40;;
29294;SDS011;16305;48.566;8.846;2023-02-28T07:46:04;13.97;;;9.73;;
29294;SDS011;16305;48.566;8.846;2023-02-28T07:48:34;15.17;;;9.53;;
29294;SDS011;16305;48.566;8.846;2023-02-28T07:51:00;16.37;;;9.73;;
29294;SDS011;16305;48.566;8.846;2023-02-28T07:53:27;13.50;;;8.73;;
29294;SDS011;16305;48.566;8.846;2023-02-28T07:55:56;14.00;;;9.63;;
29294;SDS011;16305;48.566;8.846;2023-02-28T07:58:23;13.03;;;9.20;;
29294;SDS011;16305;48.566;8.846;2023-02-28T08:00:49;14.53;;;9.23;;
29294;SDS011;16305;48.566;8.846;2023-02-28T08:03:16;14.87;;;9.00;;
29294;SDS011;16305;48.566;8.846;2023-02-28T08:05:45;15.30;;;9.50;;
29294;SDS011;16305;48.566;8.846;2023-02-28T08:08:11;13.50;;;9.30;;
29294;SDS011;16305;48.566;8.846;2023-02-28T08:10:36;14.10;;;9.43;;
29294;SDS011;16305;48.566;8.846;2023-02-28T08:13:02;15.40;;;9.87;;
29294;SDS011;16305;48.566;8.846;2023-02-28T08:15:28;15.67;;;9.50;;
29294;SDS011;16305;48.566;8.846;2023-02-28T08:17:54;16.37;;;9.60;;
29294;SDS011;16305;48.566;8.846;2023-02-28T08:20:23;14.00;;;9.43;;
29294;SDS011;16305;48.566;8.846;2023-02-28T08:22:52;17.00;;;9.70;;
29294;SDS011;16305;48.566;8.846;2023-02-28T08:25:18;13.87;;;8.83;;
29294;SDS011;16305;48.566;8.846;2023-02-28T08:27:43;14.33;;;9.80;;
29294;SDS011;16305;48.566;8.846;2023-02-28T08:30:10;15.17;;;10.03;;
29294;SDS011;16305;48.566;8.846;2023-02-28T08:32:37;17.30;;;9.83;;
29294;SDS011;16305;48.566;8.846;2023-02-28T08:35:04;15.53;;;10.07;;
29294;SDS011;16305;48.566;8.846;2023-02-28T08:37:30;17.50;;;9.60;;
29294;SDS011;16305;48.566;8.846;2023-02-28T08:39:55;15.43;;;10.13;;
29294;SDS011;16305;48.566;8.846;2023-02-28T08:42:21;14.80;;;10.40;;
29294;SDS011;16305;48.566;8.846;2023-02-28T08:44:46;15.23;;;10.37;;
29294;SDS011;16305;48.566;8.846;2023-02-28T08:47:12;15.33;;;10.57;;
29294;SDS011;16305;48.566;8.846;2023-02-28T08:49:37;14.43;;;10.03;;
29294;SDS011;16305;48.566;8.846;2023-02-28T08:52:03;17.17;;;10.30;;
29294;SDS011;16305;48.566;8.846;2023-02-28T08:54:29;14.03;;;9.77;;
29294;SDS011;16305;48.566;8.846;2023-02-28T08:56:56;15.70;;;10.07;;
29294;SDS011;16305;48.566;8.846;2023-02-28T08:59:22;19.03;;;10.17;;
29294;SDS011;16305;48.566;8.846;2023-02-28T09:01:47;13.60;;;10.47;;
29294;SDS011;16305;48.566;8.846;2023-02-28T09:04:13;17.23;;;9.97;;
29294;SDS011;16305;48.566;8.846;2023-02-28T09:06:39;17.70;;;11.50;;
29294;SDS011;16305;48.566;8.846;2023-02-28T09:09:04;16.30;;;10.73;;
29294;SDS011;16305;48.566;8.846;2023-02-28T09:11:32;16.60;;;10.40;;
29294;SDS011;16305;48.566;8.846;2023-02-28T09:13:58;15.23;;;9.70;;
29294;SDS011;16305;48.566;8.846;2023-02-28T09:16:25;12.67;;;9.60;;
29294;SDS011;16305;48.566;8.846;2023-02-28T09:18:51;35.90;;;11.70;;
29294;SDS011;16305;48.566;8.846;2023-02-28T09:21:17;16.93;;;10.50;;
29294;SDS011;16305;48.566;8.846;2023-02-28T09:23:44;26.40;;;11.13;;
29294;SDS011;16305;48.566;8.846;2023-02-28T09:26:15;16.07;;;10.20;;
29294;SDS011;16305;48.566;8.846;2023-02-28T09:28:42;17.33;;;10.83;;
29294;SDS011;16305;48.566;8.846;2023-02-28T09:31:10;14.93;;;10.53;;
29294;SDS011;16305;48.566;8.846;2023-02-28T09:33:38;18.37;;;10.30;;
29294;SDS011;16305;48.566;8.846;2023-02-28T09:36:04;16.47;;;10.40;;
29294;SDS011;16305;48.566;8.846;2023-02-28T09:38:30;18.53;;;10.07;;
29294;SDS011;16305;48.566;8.846;2023-02-28T09:40:56;16.70;;;10.90;;
29294;SDS011;16305;48.566;8.846;2023-02-28T09:43:26;19.40;;;10.80;;
29294;SDS011;16305;48.566;8.846;2023-02-28T09:46:11;15.40;;;10.67;;
29294;SDS011;16305;48.566;8.846;2023-02-28T09:48:58;16.20;;;10.33;;
29294;SDS011;16305;48.566;8.846;2023-02-28T09:51:30;16.17;;;10.27;;
29294;SDS011;16305;48.566;8.846;2023-02-28T09:54:08;18.47;;;10.53;;
29294;SDS011;16305;48.566;8.846;2023-02-28T09:56:42;22.77;;;10.87;;
29294;SDS011;16305;48.566;8.846;2023-02-28T10:01:39;16.10;;;11.17;;
29294;SDS011;16305;48.566;8.846;2023-02-28T10:04:32;15.83;;;10.60;;
29294;SDS011;16305;48.566;8.846;2023-02-28T10:10:07;15.53;;;10.97;;
29294;SDS011;16305;48.566;8.846;2023-02-28T10:12:43;15.03;;;10.30;;
29294;SDS011;16305;48.566;8.846;2023-02-28T10:15:15;17.97;;;11.20;;
29294;SDS011;16305;48.566;8.846;2023-02-28T10:17:42;15.47;;;10.80;;
29294;SDS011;16305;48.566;8.846;2023-02-28T10:20:13;15.57;;;10.97;;
29294;SDS011;16305;48.566;8.846;2023-02-28T10:22:51;17.20;;;10.63;;
29294;SDS011;16305;48.566;8.846;2023-02-28T10:25:18;16.90;;;10.53;;
29294;SDS011;16305;48.566;8.846;2023-02-28T10:27:52;18.00;;;11.30;;
29294;SDS011;16305;48.566;8.846;2023-02-28T10:30:23;17.63;;;11.07;;
29294;SDS011;16305;48.566;8.846;2023-02-28T10:32:50;16.10;;;10.60;;
29294;SDS011;16305;48.566;8.846;2023-02-28T10:35:20;19.37;;;10.40;;
29294;SDS011;16305;48.566;8.846;2023-02-28T10:37:48;17.10;;;11.10;;
29294;SDS011;16305;48.566;8.846;2023-02-28T10:45:52;13.63;;;9.57;;
29294;SDS011;16305;48.566;8.846;2023-02-28T10:58:29;17.50;;;10.47;;
29294;SDS011;16305;48.566;8.846;2023-02-28T11:00:57;20.00;;;10.90;;
29294;SDS011;16305;48.566;8.846;2023-02-28T11:05:57;14.43;;;10.13;;
29294;SDS011;16305;48.566;8.846;2023-02-28T11:08:24;14.67;;;10.03;;
29294;SDS011;16305;48.566;8.846;2023-02-28T11:10:56;16.40;;;10.70;;
29294;SDS011;16305;48.566;8.846;2023-02-28T11:13:33;13.77;;;10.00;;
29294;SDS011;16305;48.566;8.846;2023-02-28T11:16:04;18.90;;;10.40;;
29294;SDS011;16305;48.566;8.846;2023-02-28T11:21:08;13.30;;;9.97;;
29294;SDS011;16305;48.566;8.846;2023-02-28T11:23:40;15.33;;;10.80;;
29294;SDS011;16305;48.566;8.846;2023-02-28T11:26:06;16.63;;;11.20;;
29294;SDS011;16305;48.566;8.846;2023-02-28T11:28:36;15.50;;;10.60;;
29294;SDS011;16305;48.566;8.846;2023-02-28T11:33:42;13.20;;;9.70;;
29294;SDS011;16305;48.566;8.846;2023-02-28T11:36:12;15.90;;;10.90;;
29294;SDS011;16305;48.566;8.846;2023-02-28T11:38:38;14.80;;;10.73;;
29294;SDS011;16305;48.566;8.846;2023-02-28T11:46:06;19.23;;;10.97;;
29294;SDS011;16305;48.566;8.846;2023-02-28T11:56:36;13.87;;;10.57;;
29294;SDS011;16305;48.566;8.846;2023-02-28T12:07:21;14.47;;;10.37;;
29294;SDS011;16305;48.566;8.846;2023-02-28T12:10:09;15.87;;;10.57;;
29294;SDS011;16305;48.566;8.846;2023-02-28T12:18:25;11.93;;;9.90;;
29294;SDS011;16305;48.566;8.846;2023-02-28T12:21:18;13.90;;;10.20;;
29294;SDS011;16305;48.566;8.846;2023-02-28T12:29:19;12.77;;;9.93;;
29294;SDS011;16305;48.566;8.846;2023-02-28T12:31:52;13.00;;;9.43;;
29294;SDS011;16305;48.566;8.846;2023-02-28T12:34:49;11.30;;;9.23;;
29294;SDS011;16305;48.566;8.846;2023-02-28T12:37:23;11.37;;;9.40;;
29294;SDS011;16305;48.566;8.846;2023-02-28T12:39:55;12.07;;;9.90;;
29294;SDS011;16305;48.566;8.846;2023-02-28T12:42:29;12.17;;;10.37;;
29294;SDS011;16305;48.566;8.846;2023-02-28T12:44:58;11.77;;;9.80;;
29294;SDS011;16305;48.566;8.846;2023-02-28T12:47:27;12.50;;;9.17;;
29294;SDS011;16305;48.566;8.846;2023-02-28T12:50:04;12.27;;;9.40;;
29294;SDS011;16305;48.566;8.846;2023-02-28T12:52:37;13.33;;;10.20;;
29294;SDS011;16305;48.566;8.846;2023-02-28T12:55:38;16.07;;;9.77;;
29294;SDS011;16305;48.566;8.846;2023-02-28T13:04:26;10.00;;;9.00;;
29294;SDS011;16305;48.566;8.846;2023-02-28T13:09:57;12.23;;;9.40;;
29294;SDS011;16305;48.566;8.846;2023-02-28T13:12:25;12.77;;;10.30;;
29294;SDS011;16305;48.566;8.846;2023-02-28T13:14:51;13.37;;;9.60;;
29294;SDS011;16305;48.566;8.846;2023-02-28T13:17:41;12.97;;;10.10;;
29294;SDS011;16305;48.566;8.846;2023-02-28T13:20:33;13.97;;;10.60;;
29294;SDS011;16305;48.566;8.846;2023-02-28T13:23:01;13.37;;;10.20;;
29294;SDS011;16305;48.566;8.846;2023-02-28T13:28:00;13.00;;;9.70;;
29294;SDS011;16305;48.566;8.846;2023-02-28T13:33:29;12.33;;;9.63;;
29294;SDS011;16305;48.566;8.846;2023-02-28T13:38:42;11.53;;;9.50;;
29294;SDS011;16305;48.566;8.846;2023-02-28T13:46:30;12.30;;;9.40;;
29294;SDS011;16305;48.566;8.846;2023-02-28T13:48:57;10.80;;;8.83;;
29294;SDS011;16305;48.566;8.846;2023-02-28T13:57:55;9.80;;;8.83;;
29294;SDS011;16305;48.566;8.846;2023-02-28T14:06:26;11.47;;;9.33;;
29294;SDS011;16305;48.566;8.846;2023-02-28T14:11:26;13.50;;;9.97;;
29294;SDS011;16305;48.566;8.846;2023-02-28T14:13:54;10.83;;;9.10;;
29294;SDS011;16305;48.566;8.846;2023-02-28T14:16:21;14.30;;;9.00;;
29294;SDS011;16305;48.566;8.846;2023-02-28T14:19:03;13.33;;;10.17;;
29294;SDS011;16305;48.566;8.846;2023-02-28T14:21:47;13.27;;;10.70;;
29294;SDS011;16305;48.566;8.846;2023-02-28T14:27:48;10.63;;;9.53;;
29294;SDS011;16305;48.566;8.846;2023-02-28T14:38:53;10.37;;;9.33;;
29294;SDS011;16305;48.566;8.846;2023-02-28T14:41:23;11.47;;;10.27;;
29294;SDS011;16305;48.566;8.846;2023-02-28T14:43:58;12.73;;;10.17;;
29294;SDS011;16305;48.566;8.846;2023-02-28T14:46:26;11.50;;;10.30;;
29294;SDS011;16305;48.566;8.846;2023-02-28T14:49:00;13.10;;;10.73;;
29294;SDS011;16305;48.566;8.846;2023-02-28T14:51:26;12.70;;;10.13;;
29294;SDS011;16305;48.566;8.846;2023-02-28T14:53:55;14.17;;;10.37;;
29294;SDS011;16305;48.566;8.846;2023-02-28T14:56:25;15.43;;;10.63;;
29294;SDS011;16305;48.566;8.846;2023-02-28T14:59:22;14.13;;;11.00;;
29294;SDS011;16305;48.566;8.846;2023-02-28T15:01:48;11.90;;;9.77;;
29294;SDS011;16305;48.566;8.846;2023-02-28T15:04:18;12.37;;;11.07;;
29294;SDS011;16305;48.566;8.846;2023-02-28T15:07:12;11.57;;;9.53;;
29294;SDS011;16305;48.566;8.846;2023-02-28T15:09:36;13.20;;;10.67;;
29294;SDS011;16305;48.566;8.846;2023-02-28T15:12:02;13.10;;;10.37;;
29294;SDS011;16305;48.566;8.846;2023-02-28T15:14:28;12.00;;;10.03;;
29294;SDS011;16305;48.566;8.846;2023-02-28T15:16:58;15.53;;;11.07;;
29294;SDS011;16305;48.566;8.846;2023-02-28T15:19:28;27.37;;;11.77;;
29294;SDS011;16305;48.566;8.846;2023-02-28T15:22:01;13.73;;;10.67;;
29294;SDS011;16305;48.566;8.846;2023-02-28T15:24:35;16.77;;;11.13;;
29294;SDS011;16305;48.566;8.846;2023-02-28T15:27:09;15.17;;;10.43;;
29294;SDS011;16305;48.566;8.846;2023-02-28T15:29:57;17.50;;;11.67;;
29294;SDS011;16305;48.566;8.846;2023-02-28T15:34:55;15.93;;;11.80;;
29294;SDS011;16305;48.566;8.846;2023-02-28T15:37:26;15.77;;;10.23;;
29294;SDS011;16305;48.566;8.846;2023-02-28T15:42:39;15.40;;;11.43;;
29294;SDS011;16305;48.566;8.846;2023-02-28T15:45:04;15.20;;;11.57;;
29294;SDS011;16305;48.566;8.846;2023-02-28T15:47:30;14.83;;;10.57;;
29294;SDS011;16305;48.566;8.846;2023-02-28T15:49:58;14.07;;;10.63;;
29294;SDS011;16305;48.566;8.846;2023-02-28T15:52:29;13.57;;;10.63;;
29294;SDS011;16305;48.566;8.846;2023-02-28T15:57:52;15.70;;;11.60;;
29294;SDS011;16305;48.566;8.846;2023-02-28T16:00:21;15.47;;;10.77;;
29294;SDS011;16305;48.566;8.846;2023-02-28T16:02:48;14.97;;;10.57;;
29294;SDS011;16305;48.566;8.846;2023-02-28T16:05:24;14.23;;;11.23;;
29294;SDS011;16305;48.566;8.846;2023-02-28T16:07:58;19.17;;;11.73;;
29294;SDS011;16305;48.566;8.846;2023-02-28T16:10:37;15.50;;;10.07;;
29294;SDS011;16305;48.566;8.846;2023-02-28T16:13:02;19.13;;;10.50;;
29294;SDS011;16305;48.566;8.846;2023-02-28T16:15:29;15.27;;;11.20;;
29294;SDS011;16305;48.566;8.846;2023-02-28T16:17:59;16.23;;;10.67;;
29294;SDS011;16305;48.566;8.846;2023-02-28T16:20:26;15.23;;;10.37;;
29294;SDS011;16305;48.566;8.846;2023-02-28T16:22:54;14.87;;;10.97;;
29294;SDS011;16305;48.566;8.846;2023-02-28T16:25:21;15.67;;;10.63;;
29294;SDS011;16305;48.566;8.846;2023-02-28T16:27:52;15.07;;;10.77;;
29294;SDS011;16305;48.566;8.846;2023-02-28T16:30:20;22.40;;;11.00;;
29294;SDS011;16305;48.566;8.846;2023-02-28T16:32:47;15.90;;;10.77;;
29294;SDS011;16305;48.566;8.846;2023-02-28T16:35:13;14.03;;;9.90;;
29294;SDS011;16305;48.566;8.846;2023-02-28T16:37:39;15.90;;;11.17;;
29294;SDS011;16305;48.566;8.846;2023-02-28T16:40:06;15.33;;;10.30;;
29294;SDS011;16305;48.566;8.846;2023-02-28T16:42:34;14.00;;;10.20;;
29294;SDS011;16305;48.566;8.846;2023-02-28T16:44:59;14.13;;;11.20;;
29294;SDS011;16305;48.566;8.846;2023-02-28T16:47:25;17.63;;;10.93;;
29294;SDS011;16305;48.566;8.846;2023-02-28T16:49:51;14.93;;;11.03;;
29294;SDS011;16305;48.566;8.846;2023-02-28T16:52:17;16.87;;;10.67;;
29294;SDS011;16305;48.566;8.846;2023-02-28T16:54:43;15.73;;;10.73;;
29294;SDS011;16305;48.566;8.846;2023-02-28T16:57:17;14.43;;;10.70;;
29294;SDS011;16305;48.566;8.846;2023-02-28T16:59:46;16.80;;;11.73;;
29294;SDS011;16305;48.566;8.846;2023-02-28T17:02:13;18.20;;;11.67;;
29294;SDS011;16305;48.566;8.846;2023-02-28T17:04:41;15.13;;;10.90;;
29294;SDS011;16305;48.566;8.846;2023-02-28T17:07:15;13.77;;;10.60;;
29294;SDS011;16305;48.566;8.846;2023-02-28T17:09:42;17.93;;;10.73;;
29294;SDS011;16305;48.566;8.846;2023-02-28T17:12:08;15.37;;;11.20;;
29294;SDS011;16305;48.566;8.846;2023-02-28T17:14:34;15.10;;;10.93;;